createdAt,value
2023-04-15T00:00:00.346Z,99.90
2023-04-15T00:02:46.226Z,99.90
2023-04-15T00:05:33.265Z,99.90
2023-04-15T00:08:19.582Z,99.90
2023-04-15T00:11:06.065Z,99.90
2023-04-15T00:13:53.010Z,99.90
2023-04-15T00:16:39.366Z,99.90
2023-04-15T00:19:25.874Z,99.90
2023-04-15T00:22:13.260Z,99.90
2023-04-15T00:24:59.441Z,99.90
2023-04-15T00:27:45.297Z,99.90
2023-04-15T00:30:36.477Z,99.90
2023-04-15T00:33:22.758Z,99.90
2023-04-15T00:36:09.939Z,99.90
2023-04-15T00:38:57.905Z,99.90
2023-04-15T00:41:45.637Z,99.90
2023-04-15T00:44:34.671Z,99.90
2023-04-15T00:47:24.772Z,99.90
2023-04-15T00:50:12.600Z,99.90
2023-04-15T00:52:58.704Z,99.90
2023-04-15T00:55:45.395Z,99.90
2023-04-15T00:58:31.763Z,99.90
2023-04-15T01:01:21.956Z,99.90
2023-04-15T01:04:10.192Z,99.90
2023-04-15T01:06:56.830Z,99.90
2023-04-15T01:09:43.091Z,99.90
2023-04-15T01:12:29.907Z,99.90
2023-04-15T01:15:16.226Z,99.90
2023-04-15T01:18:03.387Z,99.90
2023-04-15T01:20:49.730Z,99.90
2023-04-15T01:23:39.846Z,99.90
2023-04-15T01:26:26.408Z,99.90
2023-04-15T01:29:13.165Z,99.90
2023-04-15T01:31:59.421Z,99.90
2023-04-15T01:35:06.382Z,99.90
2023-04-15T01:38:09.477Z,99.90
2023-04-15T01:40:57.486Z,99.90
2023-04-15T01:43:45.732Z,99.90
2023-04-15T01:46:33.481Z,99.90
2023-04-15T01:49:20.935Z,99.90
2023-04-15T01:52:09.104Z,99.90
2023-04-15T01:54:57.163Z,99.90
2023-04-15T01:57:44.633Z,99.90
2023-04-15T02:00:32.636Z,99.90
2023-04-15T02:03:20.518Z,99.90
2023-04-15T02:06:07.995Z,99.90
2023-04-15T02:08:55.780Z,99.90
2023-04-15T02:11:43.286Z,99.90
2023-04-15T02:14:31.684Z,99.90
2023-04-15T02:17:19.193Z,99.90
2023-04-15T02:20:08.624Z,99.90
2023-04-15T02:22:56.787Z,99.90
2023-04-15T02:25:53.801Z,99.90
2023-04-15T02:28:42.346Z,99.90
2023-04-15T02:31:29.910Z,99.90
2023-04-15T02:34:17.688Z,99.90
2023-04-15T02:37:05.956Z,99.90
2023-04-15T02:39:53.633Z,99.90
2023-04-15T02:42:42.682Z,99.90
2023-04-15T02:45:33.494Z,99.90
2023-04-15T02:48:23.013Z,99.90
2023-04-15T02:51:14.267Z,99.90
2023-04-15T02:54:01.714Z,99.90
2023-04-15T02:56:50.282Z,99.90
2023-04-15T02:59:39.371Z,99.90
2023-04-15T03:02:27.004Z,99.90
2023-04-15T03:05:14.881Z,99.90
2023-04-15T03:08:11.439Z,99.90
2023-04-15T03:11:00.891Z,99.90
2023-04-15T03:13:48.629Z,99.90
2023-04-15T03:16:51.991Z,99.90
2023-04-15T03:19:40.303Z,99.90
2023-04-15T03:22:29.383Z,99.90
2023-04-15T03:25:17.430Z,99.90
2023-04-15T03:28:05.423Z,99.90
2023-04-15T03:30:54.089Z,99.90
2023-04-15T03:33:41.482Z,99.90
2023-04-15T03:36:33.306Z,99.90
2023-04-15T03:39:20.915Z,99.90
2023-04-15T03:42:08.216Z,99.90
2023-04-15T03:44:55.930Z,99.90
2023-04-15T03:47:43.440Z,99.90
2023-04-15T03:50:31.144Z,99.90
2023-04-15T03:53:18.743Z,99.90
2023-04-15T03:56:06.448Z,99.90
2023-04-15T03:58:53.940Z,99.90
2023-04-15T04:01:41.562Z,99.90
2023-04-15T04:04:29.315Z,99.90
2023-04-15T04:07:17.784Z,99.90
2023-04-15T04:10:05.853Z,99.90
2023-04-15T04:12:53.615Z,99.90
2023-04-15T04:15:40.921Z,99.90
2023-04-15T04:18:28.473Z,99.90
2023-04-15T04:21:16.659Z,99.90
2023-04-15T04:24:04.470Z,99.90
2023-04-15T04:26:52.219Z,99.90
2023-04-15T04:29:39.569Z,99.90
2023-04-15T04:32:27.579Z,99.90
2023-04-15T04:35:15.753Z,99.90
2023-04-15T04:38:04.086Z,99.90
2023-04-15T04:40:51.302Z,99.90
2023-04-15T04:43:39.006Z,99.90
2023-04-15T04:46:26.641Z,99.90
2023-04-15T04:49:14.180Z,99.90
2023-04-15T04:52:02.626Z,99.90
2023-04-15T04:54:49.842Z,99.90
2023-04-15T04:57:39.441Z,99.90
2023-04-15T05:00:26.863Z,99.90
2023-04-15T05:03:14.949Z,99.90
2023-04-15T05:06:07.350Z,99.90
2023-04-15T05:08:54.601Z,99.90
2023-04-15T05:11:42.257Z,99.90
2023-04-15T05:14:33.427Z,99.90
2023-04-15T05:17:20.716Z,99.90
2023-04-15T05:20:09.693Z,99.90
2023-04-15T05:22:57.221Z,99.90
2023-04-15T05:25:45.216Z,99.90
2023-04-15T05:28:32.749Z,99.90
2023-04-15T05:31:20.539Z,99.90
2023-04-15T05:34:10.530Z,99.90
2023-04-15T05:37:00.955Z,99.90
2023-04-15T05:39:48.834Z,99.90
2023-04-15T05:42:36.494Z,99.90
2023-04-15T05:45:23.918Z,99.90
2023-04-15T05:48:12.129Z,99.90
2023-04-15T05:51:00.060Z,99.90
2023-04-15T05:53:47.748Z,99.90
2023-04-15T05:56:35.471Z,99.90
2023-04-15T05:59:23.044Z,99.80
2023-04-15T06:02:10.654Z,99.30
2023-04-15T06:05:01.399Z,99.70
2023-04-15T06:07:49.800Z,99.40
2023-04-15T06:10:38.116Z,99.20
2023-04-15T06:13:26.333Z,98.60
2023-04-15T06:16:13.835Z,98.40
2023-04-15T06:19:01.458Z,98.40
2023-04-15T06:21:49.793Z,98.30
2023-04-15T06:24:37.457Z,98.00
2023-04-15T06:27:25.025Z,98.10
2023-04-15T06:30:12.786Z,97.50
2023-04-15T06:33:00.220Z,97.70
2023-04-15T06:35:49.619Z,97.20
2023-04-15T06:38:37.148Z,97.30
2023-04-15T06:41:25.017Z,96.90
2023-04-15T06:44:12.614Z,97.10
2023-04-15T06:46:59.668Z,96.60
2023-04-15T06:49:47.406Z,96.40
2023-04-15T06:52:36.134Z,96.60
2023-04-15T06:55:23.502Z,96.80
2023-04-15T06:58:11.113Z,96.10
2023-04-15T07:00:59.121Z,96.20
2023-04-15T07:03:47.010Z,95.70
2023-04-15T07:06:35.627Z,95.60
2023-04-15T07:09:24.810Z,95.70
2023-04-15T07:12:12.419Z,95.30
2023-04-15T07:15:00.131Z,95.00
2023-04-15T07:17:47.806Z,95.80
2023-04-15T07:20:35.896Z,95.00
2023-04-15T07:23:23.447Z,94.60
2023-04-15T07:26:11.203Z,93.30
2023-04-15T07:29:01.068Z,93.60
2023-04-15T07:31:49.236Z,93.50
2023-04-15T07:34:37.561Z,91.40
2023-04-15T07:37:25.277Z,92.60
2023-04-15T07:40:14.554Z,92.20
2023-04-15T07:43:02.232Z,91.10
2023-04-15T07:45:49.731Z,91.40
2023-04-15T07:48:37.689Z,89.30
2023-04-15T07:51:25.685Z,91.10
2023-04-15T07:54:13.457Z,89.10
2023-04-15T07:57:01.496Z,90.80
2023-04-15T07:59:49.027Z,90.80
2023-04-15T08:02:38.159Z,90.10
2023-04-15T08:05:27.041Z,86.90
2023-04-15T08:08:14.780Z,86.70
2023-04-15T08:11:02.508Z,83.60
2023-04-15T08:13:49.950Z,85.20
2023-04-15T08:16:37.566Z,81.70
2023-04-15T08:19:25.308Z,83.10
2023-04-15T08:22:18.020Z,84.30
2023-04-15T08:25:06.248Z,82.00
2023-04-15T08:27:57.597Z,84.60
2023-04-15T08:30:44.893Z,81.80
2023-04-15T08:33:32.513Z,85.30
2023-04-15T08:36:20.315Z,83.10
2023-04-15T08:39:07.801Z,83.50
2023-04-15T08:42:02.681Z,86.00
2023-04-15T08:44:51.161Z,87.10
2023-04-15T08:47:41.855Z,84.60
2023-04-15T08:50:31.583Z,85.30
2023-04-15T08:53:19.423Z,85.20
2023-04-15T08:56:10.330Z,86.60
2023-04-15T08:58:58.193Z,85.60
2023-04-15T09:01:46.501Z,85.50
2023-04-15T09:04:34.142Z,86.50
2023-04-15T09:07:21.797Z,88.40
2023-04-15T09:10:10.622Z,85.80
2023-04-15T09:12:58.827Z,87.60
2023-04-15T09:15:46.324Z,85.30
2023-04-15T09:18:37.285Z,88.70
2023-04-15T09:21:24.996Z,85.50
2023-04-15T09:24:12.138Z,84.90
2023-04-15T09:27:00.597Z,83.10
2023-04-15T09:29:50.646Z,85.60
2023-04-15T09:32:52.181Z,85.40
2023-04-15T09:35:39.639Z,82.10
2023-04-15T09:38:27.542Z,80.60
2023-04-15T09:41:20.720Z,82.50
2023-04-15T09:44:22.041Z,83.00
2023-04-15T09:47:09.712Z,84.40
2023-04-15T09:49:58.792Z,85.40
2023-04-15T09:52:47.717Z,84.40
2023-04-15T09:55:35.492Z,84.40
2023-04-15T09:58:30.376Z,82.70
2023-04-15T10:01:18.194Z,83.10
2023-04-15T10:04:06.848Z,83.10
2023-04-15T10:06:54.903Z,81.50
2023-04-15T10:09:45.789Z,82.10
2023-04-15T10:12:33.943Z,83.70
2023-04-15T10:15:22.109Z,83.00
2023-04-15T10:18:11.456Z,83.30
2023-04-15T10:21:01.256Z,84.90
2023-04-15T10:23:49.349Z,86.10
2023-04-15T10:26:37.030Z,86.90
2023-04-15T10:29:28.551Z,86.20
2023-04-15T10:32:19.161Z,84.20
2023-04-15T10:35:07.903Z,82.70
2023-04-15T10:37:55.090Z,83.10
2023-04-15T10:40:45.350Z,85.30
2023-04-15T10:43:32.974Z,84.50
2023-04-15T10:46:41.529Z,85.30
2023-04-15T10:49:29.653Z,83.50
2023-04-15T10:52:22.192Z,82.90
2023-04-15T10:55:17.910Z,82.60
2023-04-15T10:58:05.938Z,83.90
2023-04-15T11:00:54.095Z,83.30
2023-04-15T11:03:43.736Z,80.80
2023-04-15T11:06:45.524Z,83.10
2023-04-15T11:09:34.509Z,84.50
2023-04-15T11:12:22.191Z,83.10
2023-04-15T11:15:35.987Z,82.60
2023-04-15T11:18:25.607Z,83.30
2023-04-15T11:21:13.020Z,84.60
2023-04-15T11:24:02.131Z,81.90
2023-04-15T11:26:49.834Z,82.90
2023-04-15T11:29:39.529Z,83.20
2023-04-15T11:32:27.113Z,86.30
2023-04-15T11:35:14.603Z,81.70
2023-04-15T11:38:08.672Z,82.70
2023-04-15T11:40:56.289Z,83.40
2023-04-15T11:43:43.687Z,82.80
2023-04-15T11:46:31.985Z,82.50
2023-04-15T11:49:30.894Z,82.30
2023-04-15T11:52:17.481Z,82.50
2023-04-15T11:55:04.478Z,83.70
2023-04-15T11:58:10.991Z,83.80
2023-04-15T12:01:01.569Z,82.70
2023-04-15T12:03:49.626Z,82.40
2023-04-15T12:06:37.346Z,82.90
2023-04-15T12:09:23.548Z,84.00
2023-04-15T12:12:12.108Z,81.20
2023-04-15T12:14:59.447Z,83.40
2023-04-15T12:17:51.708Z,86.10
2023-04-15T12:20:45.428Z,85.90
2023-04-15T12:23:31.722Z,83.40
2023-04-15T12:26:19.180Z,80.60
2023-04-15T12:29:08.166Z,76.10
2023-04-15T12:31:57.908Z,74.40
2023-04-15T12:34:52.479Z,75.90
2023-04-15T12:37:38.467Z,75.90
2023-04-15T12:40:24.534Z,76.00
2023-04-15T12:43:11.305Z,76.50
2023-04-15T12:45:57.702Z,73.80
2023-04-15T12:48:44.323Z,75.30
2023-04-15T12:51:31.722Z,71.10
2023-04-15T12:54:18.451Z,73.00
2023-04-15T12:57:06.764Z,73.90
2023-04-15T12:59:53.598Z,76.20
2023-04-15T13:02:39.804Z,75.80
2023-04-15T13:05:26.192Z,76.80
2023-04-15T13:08:12.603Z,78.20
2023-04-15T13:10:58.763Z,77.40
2023-04-15T13:13:45.031Z,78.30
2023-04-15T13:16:32.087Z,78.60
2023-04-15T13:19:18.177Z,81.70
2023-04-15T13:22:04.240Z,79.10
2023-04-15T13:24:51.452Z,80.20
2023-04-15T13:27:38.134Z,80.60
2023-04-15T13:30:24.351Z,83.30
2023-04-15T13:33:10.743Z,80.20
2023-04-15T13:35:57.015Z,80.10
2023-04-15T13:38:43.304Z,80.30
2023-04-15T13:41:29.929Z,81.50
2023-04-15T13:44:15.817Z,82.30
2023-04-15T13:47:01.821Z,82.80
2023-04-15T13:49:47.839Z,83.80
2023-04-15T13:52:34.117Z,84.00
2023-04-15T13:55:22.263Z,83.30
2023-04-15T13:58:10.025Z,83.20
2023-04-15T14:00:56.253Z,83.90
2023-04-15T14:03:42.416Z,82.20
2023-04-15T14:06:31.592Z,81.70
2023-04-15T14:09:17.809Z,80.00
2023-04-15T14:12:04.840Z,80.80
2023-04-15T14:14:50.996Z,82.80
2023-04-15T14:17:37.062Z,82.80
2023-04-15T14:20:23.149Z,83.10
2023-04-15T14:23:09.035Z,82.50
2023-04-15T14:25:55.158Z,81.60
2023-04-15T14:28:41.137Z,80.30
2023-04-15T14:31:27.058Z,81.20
2023-04-15T14:34:13.560Z,80.70
2023-04-15T14:36:59.647Z,79.70
2023-04-15T14:39:45.657Z,82.70
2023-04-15T14:42:31.875Z,82.10
2023-04-15T14:45:17.915Z,81.20
2023-04-15T14:48:04.509Z,82.10
2023-04-15T14:50:50.952Z,82.40
2023-04-15T14:53:37.230Z,82.40
2023-04-15T14:56:23.194Z,84.10
2023-04-15T14:59:09.075Z,85.80
2023-04-15T15:01:55.098Z,84.20
2023-04-15T15:04:41.819Z,84.60
2023-04-15T15:07:27.798Z,84.50
2023-04-15T15:10:13.808Z,85.10
2023-04-15T15:13:00.001Z,87.00
2023-04-15T15:15:46.357Z,87.20
2023-04-15T15:18:32.498Z,87.50
2023-04-15T15:21:18.686Z,88.60
2023-04-15T15:24:05.509Z,90.20
2023-04-15T15:26:51.934Z,90.80
2023-04-15T15:29:38.353Z,90.90
2023-04-15T15:32:24.470Z,90.30
2023-04-15T15:35:11.166Z,91.30
2023-04-15T15:37:57.112Z,91.90
2023-04-15T15:40:43.021Z,92.00
2023-04-15T15:43:29.032Z,92.70
2023-04-15T15:46:15.805Z,93.30
2023-04-15T15:49:03.677Z,93.60
2023-04-15T15:51:50.008Z,93.50
2023-04-15T15:54:37.654Z,93.90
2023-04-15T15:57:23.998Z,93.80
2023-04-15T16:00:12.873Z,93.60
2023-04-15T16:05:48.553Z,94.20
2023-04-15T16:08:34.995Z,94.00
2023-04-15T16:11:21.271Z,94.60
2023-04-15T16:14:07.218Z,94.80
2023-04-15T16:16:53.594Z,94.50
2023-04-15T16:19:39.741Z,93.20
2023-04-15T16:22:26.583Z,94.20
2023-04-15T16:25:13.179Z,94.20
2023-04-15T16:28:05.601Z,94.30
2023-04-15T16:30:57.932Z,93.90
2023-04-15T16:33:44.008Z,94.00
2023-04-15T16:36:30.054Z,94.60
2023-04-15T16:39:16.220Z,93.90
2023-04-15T16:42:03.315Z,94.30
2023-04-15T16:44:49.400Z,93.10
2023-04-15T16:47:36.095Z,93.70
2023-04-15T16:50:22.162Z,93.50
2023-04-15T16:53:08.292Z,94.10
2023-04-15T16:55:54.441Z,93.70
2023-04-15T16:58:40.772Z,94.30
2023-04-15T17:01:26.977Z,93.60
2023-04-15T17:04:13.100Z,93.00
2023-04-15T17:06:59.363Z,93.90
2023-04-15T17:09:46.120Z,94.70
2023-04-15T17:12:32.535Z,94.60
2023-04-15T17:15:19.313Z,95.60
2023-04-15T17:18:08.673Z,96.30
2023-04-15T17:20:58.188Z,96.40
2023-04-15T17:23:44.776Z,97.10
2023-04-15T17:26:31.687Z,96.80
2023-04-15T17:29:17.897Z,96.40
2023-04-15T17:32:07.887Z,96.20
2023-04-15T17:35:14.024Z,96.80
2023-04-15T17:38:20.071Z,96.90
2023-04-15T17:41:26.300Z,96.70
2023-04-15T17:44:12.491Z,96.90
2023-04-15T17:47:18.446Z,97.50
2023-04-15T17:50:24.610Z,98.10
2023-04-15T17:53:30.772Z,98.50
2023-04-15T17:56:36.899Z,98.10
2023-04-15T17:59:44.397Z,98.30
2023-04-15T18:02:50.719Z,98.20
2023-04-15T18:05:56.668Z,98.20
2023-04-15T18:09:03.510Z,98.70
2023-04-15T18:12:10.403Z,98.70
2023-04-15T18:15:16.697Z,99.10
2023-04-15T18:18:22.613Z,99.50
2023-04-15T18:21:19.643Z,99.60
2023-04-15T18:24:06.294Z,99.70
2023-04-15T18:26:52.692Z,99.90
2023-04-15T18:29:39.202Z,99.90
2023-04-15T18:32:25.600Z,99.90
2023-04-15T18:35:11.778Z,99.90
2023-04-15T18:37:58.796Z,99.90
2023-04-15T18:40:44.776Z,99.90
2023-04-15T18:43:30.722Z,99.90
2023-04-15T18:46:17.493Z,99.90
2023-04-15T18:49:04.274Z,99.90
2023-04-15T18:51:50.579Z,99.90
2023-04-15T18:54:37.002Z,99.90
2023-04-15T18:57:23.487Z,99.90
2023-04-15T19:00:17.877Z,99.90
2023-04-15T19:03:04.374Z,99.90
2023-04-15T19:05:50.812Z,99.90
2023-04-15T19:08:37.091Z,99.90
2023-04-15T19:11:23.435Z,99.90
2023-04-15T19:14:10.396Z,99.90
2023-04-15T19:16:56.794Z,99.90
2023-04-15T19:19:43.592Z,99.90
2023-04-15T19:22:29.922Z,99.90
2023-04-15T19:25:15.893Z,99.90
2023-04-15T19:28:02.185Z,99.90
2023-04-15T19:30:48.034Z,99.90
2023-04-15T19:33:34.875Z,99.90
2023-04-15T19:36:21.355Z,99.90
2023-04-15T19:39:07.866Z,99.90
2023-04-15T19:41:55.474Z,99.90
2023-04-15T19:44:42.889Z,99.90
2023-04-15T19:47:29.101Z,99.90
2023-04-15T19:50:16.604Z,99.90
2023-04-15T19:53:02.872Z,99.90
2023-04-15T19:55:49.044Z,99.90
2023-04-15T19:58:35.037Z,99.90
2023-04-15T20:01:22.010Z,99.90
2023-04-15T20:04:08.665Z,99.90
2023-04-15T20:06:55.747Z,99.90
2023-04-15T20:09:43.852Z,99.90
2023-04-15T20:12:49.665Z,99.90
2023-04-15T20:15:36.555Z,99.90
2023-04-15T20:18:22.886Z,99.90
2023-04-15T20:21:08.752Z,99.90
2023-04-15T20:23:54.622Z,99.90
2023-04-15T20:26:40.566Z,99.90
2023-04-15T20:29:26.549Z,99.90
2023-04-15T20:32:12.987Z,99.90
2023-04-15T20:34:58.937Z,99.90
2023-04-15T20:37:45.081Z,99.90
2023-04-15T20:40:33.593Z,99.90
2023-04-15T20:43:21.483Z,99.90
2023-04-15T20:46:17.971Z,99.90
2023-04-15T20:49:08.298Z,99.90
2023-04-15T20:51:54.499Z,99.90
2023-04-15T20:54:41.077Z,99.90
2023-04-15T20:57:27.079Z,99.90
2023-04-15T21:00:13.545Z,99.90
2023-04-15T21:02:59.707Z,99.90
2023-04-15T21:05:46.065Z,99.90
2023-04-15T21:08:32.373Z,99.90
2023-04-15T21:11:33.159Z,99.90
2023-04-15T21:14:24.915Z,99.90
2023-04-15T21:17:11.548Z,99.90
2023-04-15T21:19:57.774Z,99.90
2023-04-15T21:22:43.802Z,99.90
2023-04-15T21:25:29.878Z,99.90
2023-04-15T21:28:15.923Z,99.90
2023-04-15T21:31:01.705Z,99.90
2023-04-15T21:33:47.757Z,99.90
2023-04-15T21:36:34.047Z,99.90
2023-04-15T21:39:20.836Z,99.90
2023-04-15T21:42:06.789Z,99.90
2023-04-15T21:44:52.948Z,99.90
2023-04-15T21:48:05.809Z,99.90
2023-04-15T21:50:45.274Z,99.90
2023-04-15T21:53:31.582Z,99.90
2023-04-15T21:56:17.427Z,99.90
2023-04-15T21:59:03.575Z,99.90
2023-04-15T22:01:50.010Z,99.90
2023-04-15T22:04:36.461Z,99.90
2023-04-15T22:07:22.839Z,99.90
2023-04-15T22:10:09.456Z,99.90
2023-04-15T22:12:57.016Z,99.90
2023-04-15T22:15:43.255Z,99.90
2023-04-15T22:18:29.162Z,99.90
2023-04-15T22:21:15.126Z,99.90
2023-04-15T22:24:32.551Z,99.90
2023-04-15T22:27:07.497Z,99.90
2023-04-15T22:29:53.667Z,99.90
2023-04-15T22:32:40.094Z,99.90
2023-04-15T22:35:26.004Z,99.90
2023-04-15T22:38:11.820Z,99.90
2023-04-15T22:40:58.495Z,99.90
2023-04-15T22:43:45.818Z,99.90
2023-04-15T22:46:31.756Z,99.90
2023-04-15T22:49:17.982Z,99.90
2023-04-15T22:52:04.246Z,99.90
2023-04-15T22:54:50.345Z,99.90
2023-04-15T22:57:36.278Z,99.90
2023-04-15T23:00:22.301Z,99.90
2023-04-15T23:03:08.395Z,99.90
2023-04-15T23:05:54.953Z,99.90
2023-04-15T23:08:41.411Z,99.90
2023-04-15T23:11:27.569Z,99.90
2023-04-15T23:14:13.455Z,99.90
2023-04-15T23:16:59.364Z,99.90
2023-04-15T23:19:45.383Z,99.90
2023-04-15T23:22:31.560Z,99.90
2023-04-15T23:25:18.073Z,99.90
2023-04-15T23:28:04.402Z,99.90
2023-04-15T23:30:50.266Z,99.90
2023-04-15T23:33:38.105Z,99.90
2023-04-15T23:36:24.322Z,99.90
2023-04-15T23:39:10.534Z,99.90
2023-04-15T23:41:57.494Z,99.90
2023-04-15T23:44:43.586Z,99.90
2023-04-15T23:47:29.976Z,99.90
2023-04-15T23:50:16.189Z,99.90
2023-04-15T23:53:02.334Z,99.90
2023-04-15T23:55:51.384Z,99.90
2023-04-15T23:58:37.273Z,99.90
